sensor_id;sensor_type;location;lat;lon;timestamp;P1;durP1;ratioP1;P2;durP2;ratioP2
69894;SDS011;57172;52.034;5.090;2023-03-16T00:02:22;10.50;;;5.80;;
69894;SDS011;57172;52.034;5.090;2023-03-16T00:04:50;8.93;;;5.40;;
69894;SDS011;57172;52.034;5.090;2023-03-16T00:07:16;10.88;;;5.00;;
69894;SDS011;57172;52.034;5.090;2023-03-16T00:09:43;8.02;;;3.53;;
69894;SDS011;57172;52.034;5.090;2023-03-16T00:12:12;9.77;;;4.60;;
69894;SDS011;57172;52.034;5.090;2023-03-16T00:14:44;9.68;;;5.25;;
69894;SDS011;57172;52.034;5.090;2023-03-16T00:17:13;9.30;;;5.03;;
69894;SDS011;57172;52.034;5.090;2023-03-16T00:19:48;9.48;;;4.80;;
69894;SDS011;57172;52.034;5.090;2023-03-16T00:22:21;11.27;;;5.55;;
69894;SDS011;57172;52.034;5.090;2023-03-16T00:24:49;10.65;;;5.05;;
69894;SDS011;57172;52.034;5.090;2023-03-16T00:27:16;11.10;;;5.28;;
69894;SDS011;57172;52.034;5.090;2023-03-16T00:29:44;10.40;;;5.60;;
69894;SDS011;57172;52.034;5.090;2023-03-16T00:32:34;10.73;;;5.43;;
69894;SDS011;57172;52.034;5.090;2023-03-16T00:35:03;9.75;;;4.90;;
69894;SDS011;57172;52.034;5.090;2023-03-16T00:37:35;10.20;;;5.53;;
69894;SDS011;57172;52.034;5.090;2023-03-16T00:40:05;11.48;;;5.38;;
69894;SDS011;57172;52.034;5.090;2023-03-16T00:42:33;9.50;;;5.57;;
69894;SDS011;57172;52.034;5.090;2023-03-16T00:45:00;10.70;;;5.55;;
69894;SDS011;57172;52.034;5.090;2023-03-16T00:47:28;10.45;;;5.43;;
69894;SDS011;57172;52.034;5.090;2023-03-16T00:49:57;9.85;;;5.55;;
69894;SDS011;57172;52.034;5.090;2023-03-16T00:52:25;9.43;;;5.15;;
69894;SDS011;57172;52.034;5.090;2023-03-16T00:54:53;8.60;;;5.00;;
69894;SDS011;57172;52.034;5.090;2023-03-16T00:57:22;9.98;;;5.38;;
69894;SDS011;57172;52.034;5.090;2023-03-16T00:59:50;9.60;;;4.82;;
69894;SDS011;57172;52.034;5.090;2023-03-16T01:02:18;9.50;;;5.70;;
69894;SDS011;57172;52.034;5.090;2023-03-16T01:04:55;12.00;;;5.40;;
69894;SDS011;57172;52.034;5.090;2023-03-16T01:07:27;9.27;;;5.67;;
69894;SDS011;57172;52.034;5.090;2023-03-16T01:09:55;11.45;;;5.30;;
69894;SDS011;57172;52.034;5.090;2023-03-16T01:12:23;11.32;;;5.90;;
69894;SDS011;57172;52.034;5.090;2023-03-16T01:14:50;10.00;;;5.25;;
69894;SDS011;57172;52.034;5.090;2023-03-16T01:17:17;9.57;;;5.10;;
69894;SDS011;57172;52.034;5.090;2023-03-16T01:19:44;10.40;;;5.60;;
69894;SDS011;57172;52.034;5.090;2023-03-16T01:22:12;9.15;;;5.00;;
69894;SDS011;57172;52.034;5.090;2023-03-16T01:24:40;9.95;;;5.55;;
69894;SDS011;57172;52.034;5.090;2023-03-16T01:27:10;9.43;;;5.10;;
69894;SDS011;57172;52.034;5.090;2023-03-16T01:29:38;11.73;;;5.70;;
69894;SDS011;57172;52.034;5.090;2023-03-16T01:32:06;10.37;;;4.80;;
69894;SDS011;57172;52.034;5.090;2023-03-16T01:34:33;9.77;;;5.28;;
69894;SDS011;57172;52.034;5.090;2023-03-16T01:37:01;11.65;;;5.53;;
69894;SDS011;57172;52.034;5.090;2023-03-16T01:39:36;9.02;;;5.07;;
69894;SDS011;57172;52.034;5.090;2023-03-16T01:42:04;9.88;;;5.72;;
69894;SDS011;57172;52.034;5.090;2023-03-16T01:44:48;10.47;;;5.07;;
69894;SDS011;57172;52.034;5.090;2023-03-16T01:47:20;9.10;;;4.68;;
69894;SDS011;57172;52.034;5.090;2023-03-16T01:49:49;9.90;;;5.05;;
69894;SDS011;57172;52.034;5.090;2023-03-16T01:52:24;10.57;;;5.47;;
69894;SDS011;57172;52.034;5.090;2023-03-16T01:55:04;9.25;;;4.75;;
69894;SDS011;57172;52.034;5.090;2023-03-16T01:57:35;12.17;;;5.37;;
69894;SDS011;57172;52.034;5.090;2023-03-16T02:02:51;11.07;;;5.75;;
69894;SDS011;57172;52.034;5.090;2023-03-16T02:05:36;10.07;;;5.90;;
69894;SDS011;57172;52.034;5.090;2023-03-16T02:08:08;9.32;;;5.65;;
69894;SDS011;57172;52.034;5.090;2023-03-16T02:10:38;10.87;;;5.90;;
69894;SDS011;57172;52.034;5.090;2023-03-16T02:13:06;10.77;;;5.97;;
69894;SDS011;57172;52.034;5.090;2023-03-16T02:15:34;8.60;;;4.70;;
69894;SDS011;57172;52.034;5.090;2023-03-16T02:18:01;12.05;;;5.50;;
69894;SDS011;57172;52.034;5.090;2023-03-16T02:23:22;9.20;;;3.60;;
69894;SDS011;57172;52.034;5.090;2023-03-16T02:31:18;10.20;;;5.03;;
69894;SDS011;57172;52.034;5.090;2023-03-16T02:33:47;9.30;;;4.97;;
69894;SDS011;57172;52.034;5.090;2023-03-16T02:36:18;10.27;;;5.57;;
69894;SDS011;57172;52.034;5.090;2023-03-16T02:38:46;11.70;;;5.15;;
69894;SDS011;57172;52.034;5.090;2023-03-16T02:41:16;7.05;;;3.83;;
69894;SDS011;57172;52.034;5.090;2023-03-16T02:43:51;6.63;;;3.70;;
69894;SDS011;57172;52.034;5.090;2023-03-16T02:46:26;8.02;;;4.13;;
69894;SDS011;57172;52.034;5.090;2023-03-16T02:49:06;10.87;;;5.20;;
69894;SDS011;57172;52.034;5.090;2023-03-16T02:51:38;9.40;;;4.82;;
69894;SDS011;57172;52.034;5.090;2023-03-16T02:54:06;11.07;;;5.07;;
69894;SDS011;57172;52.034;5.090;2023-03-16T02:56:33;9.20;;;4.60;;
69894;SDS011;57172;52.034;5.090;2023-03-16T02:59:00;9.18;;;4.45;;
69894;SDS011;57172;52.034;5.090;2023-03-16T03:01:28;7.20;;;4.10;;
69894;SDS011;57172;52.034;5.090;2023-03-16T03:03:55;9.23;;;4.82;;
69894;SDS011;57172;52.034;5.090;2023-03-16T03:06:23;9.48;;;5.00;;
69894;SDS011;57172;52.034;5.090;2023-03-16T03:08:50;9.10;;;4.72;;
69894;SDS011;57172;52.034;5.090;2023-03-16T03:11:18;8.05;;;4.93;;
69894;SDS011;57172;52.034;5.090;2023-03-16T03:13:45;10.60;;;5.17;;
69894;SDS011;57172;52.034;5.090;2023-03-16T03:16:17;7.28;;;4.07;;
69894;SDS011;57172;52.034;5.090;2023-03-16T03:18:44;7.03;;;3.95;;
69894;SDS011;57172;52.034;5.090;2023-03-16T03:21:11;8.25;;;4.43;;
69894;SDS011;57172;52.034;5.090;2023-03-16T03:23:38;8.77;;;4.28;;
69894;SDS011;57172;52.034;5.090;2023-03-16T03:26:06;10.63;;;5.53;;
69894;SDS011;57172;52.034;5.090;2023-03-16T03:28:33;10.77;;;5.07;;
69894;SDS011;57172;52.034;5.090;2023-03-16T03:31:00;10.13;;;5.40;;
69894;SDS011;57172;52.034;5.090;2023-03-16T03:33:27;9.10;;;5.28;;
69894;SDS011;57172;52.034;5.090;2023-03-16T03:35:56;10.52;;;4.57;;
69894;SDS011;57172;52.034;5.090;2023-03-16T03:38:28;11.13;;;5.57;;
69894;SDS011;57172;52.034;5.090;2023-03-16T03:40:55;10.68;;;4.38;;
69894;SDS011;57172;52.034;5.090;2023-03-16T03:43:27;9.20;;;4.53;;
69894;SDS011;57172;52.034;5.090;2023-03-16T03:45:56;10.00;;;5.05;;
69894;SDS011;57172;52.034;5.090;2023-03-16T03:48:23;9.05;;;4.85;;
69894;SDS011;57172;52.034;5.090;2023-03-16T03:50:50;9.50;;;4.83;;
69894;SDS011;57172;52.034;5.090;2023-03-16T03:53:34;8.95;;;4.97;;
69894;SDS011;57172;52.034;5.090;2023-03-16T03:56:30;10.27;;;5.25;;
69894;SDS011;57172;52.034;5.090;2023-03-16T03:58:57;7.22;;;3.60;;
69894;SDS011;57172;52.034;5.090;2023-03-16T04:01:43;9.15;;;4.78;;
69894;SDS011;57172;52.034;5.090;2023-03-16T04:04:10;10.27;;;4.93;;
69894;SDS011;57172;52.034;5.090;2023-03-16T04:06:37;9.23;;;4.45;;
69894;SDS011;57172;52.034;5.090;2023-03-16T04:09:04;11.77;;;5.15;;
69894;SDS011;57172;52.034;5.090;2023-03-16T04:11:31;11.02;;;5.10;;
69894;SDS011;57172;52.034;5.090;2023-03-16T04:13:58;8.85;;;4.70;;
69894;SDS011;57172;52.034;5.090;2023-03-16T04:16:25;10.70;;;5.53;;
69894;SDS011;57172;52.034;5.090;2023-03-16T04:18:54;8.82;;;4.97;;
69894;SDS011;57172;52.034;5.090;2023-03-16T04:21:22;9.85;;;4.75;;
69894;SDS011;57172;52.034;5.090;2023-03-16T04:23:49;9.60;;;3.83;;
69894;SDS011;57172;52.034;5.090;2023-03-16T04:26:24;9.52;;;4.32;;
69894;SDS011;57172;52.034;5.090;2023-03-16T04:28:51;8.67;;;4.10;;
69894;SDS011;57172;52.034;5.090;2023-03-16T04:31:19;10.02;;;4.60;;
69894;SDS011;57172;52.034;5.090;2023-03-16T04:33:46;7.50;;;3.75;;
69894;SDS011;57172;52.034;5.090;2023-03-16T04:36:13;7.47;;;3.42;;
69894;SDS011;57172;52.034;5.090;2023-03-16T04:38:41;11.50;;;5.05;;
69894;SDS011;57172;52.034;5.090;2023-03-16T04:41:09;7.83;;;3.87;;
69894;SDS011;57172;52.034;5.090;2023-03-16T04:43:43;8.32;;;4.10;;
69894;SDS011;57172;52.034;5.090;2023-03-16T04:46:17;11.23;;;4.70;;
69894;SDS011;57172;52.034;5.090;2023-03-16T04:48:44;10.05;;;4.28;;
69894;SDS011;57172;52.034;5.090;2023-03-16T04:51:11;8.90;;;3.97;;
69894;SDS011;57172;52.034;5.090;2023-03-16T04:53:43;8.50;;;4.63;;
69894;SDS011;57172;52.034;5.090;2023-03-16T04:56:18;9.98;;;5.13;;
69894;SDS011;57172;52.034;5.090;2023-03-16T04:58:52;10.05;;;5.32;;
69894;SDS011;57172;52.034;5.090;2023-03-16T05:01:21;11.82;;;5.10;;
69894;SDS011;57172;52.034;5.090;2023-03-16T05:03:52;9.43;;;4.57;;
69894;SDS011;57172;52.034;5.090;2023-03-16T05:06:19;12.23;;;5.03;;
69894;SDS011;57172;52.034;5.090;2023-03-16T05:08:46;7.60;;;3.60;;
69894;SDS011;57172;52.034;5.090;2023-03-16T05:11:14;9.45;;;4.50;;
69894;SDS011;57172;52.034;5.090;2023-03-16T05:13:50;10.35;;;4.75;;
69894;SDS011;57172;52.034;5.090;2023-03-16T05:16:18;11.75;;;4.72;;
69894;SDS011;57172;52.034;5.090;2023-03-16T05:18:45;8.13;;;4.40;;
69894;SDS011;57172;52.034;5.090;2023-03-16T05:21:12;9.23;;;4.05;;
69894;SDS011;57172;52.034;5.090;2023-03-16T05:23:52;11.82;;;4.80;;
69894;SDS011;57172;52.034;5.090;2023-03-16T05:26:19;12.57;;;4.90;;
69894;SDS011;57172;52.034;5.090;2023-03-16T05:28:46;9.02;;;4.22;;
69894;SDS011;57172;52.034;5.090;2023-03-16T05:31:15;8.40;;;4.60;;
69894;SDS011;57172;52.034;5.090;2023-03-16T05:33:48;10.23;;;5.32;;
69894;SDS011;57172;52.034;5.090;2023-03-16T05:36:17;11.27;;;5.72;;
69894;SDS011;57172;52.034;5.090;2023-03-16T05:38:49;11.93;;;5.15;;
69894;SDS011;57172;52.034;5.090;2023-03-16T05:41:24;38.10;;;9.45;;
69894;SDS011;57172;52.034;5.090;2023-03-16T05:43:57;15.03;;;6.33;;
69894;SDS011;57172;52.034;5.090;2023-03-16T05:46:29;11.88;;;5.88;;
69894;SDS011;57172;52.034;5.090;2023-03-16T05:48:58;35.92;;;16.25;;
69894;SDS011;57172;52.034;5.090;2023-03-16T05:51:25;25.23;;;10.40;;
69894;SDS011;57172;52.034;5.090;2023-03-16T05:53:53;24.98;;;10.32;;
69894;SDS011;57172;52.034;5.090;2023-03-16T05:56:30;9.70;;;5.37;;
69894;SDS011;57172;52.034;5.090;2023-03-16T05:58:58;10.68;;;4.78;;
69894;SDS011;57172;52.034;5.090;2023-03-16T06:01:26;16.75;;;7.65;;
69894;SDS011;57172;52.034;5.090;2023-03-16T06:03:53;11.57;;;6.15;;
69894;SDS011;57172;52.034;5.090;2023-03-16T06:06:24;14.00;;;6.38;;
69894;SDS011;57172;52.034;5.090;2023-03-16T06:09:06;9.93;;;4.33;;
69894;SDS011;57172;52.034;5.090;2023-03-16T06:11:33;8.98;;;4.22;;
69894;SDS011;57172;52.034;5.090;2023-03-16T06:14:00;11.75;;;5.30;;
69894;SDS011;57172;52.034;5.090;2023-03-16T06:16:27;7.90;;;3.42;;
69894;SDS011;57172;52.034;5.090;2023-03-16T06:18:54;11.10;;;4.60;;
69894;SDS011;57172;52.034;5.090;2023-03-16T06:21:25;14.17;;;4.73;;
69894;SDS011;57172;52.034;5.090;2023-03-16T06:23:54;11.48;;;3.90;;
69894;SDS011;57172;52.034;5.090;2023-03-16T06:26:21;22.85;;;6.45;;
69894;SDS011;57172;52.034;5.090;2023-03-16T06:28:49;14.30;;;4.70;;
69894;SDS011;57172;52.034;5.090;2023-03-16T06:31:15;9.40;;;4.55;;
69894;SDS011;57172;52.034;5.090;2023-03-16T06:33:44;25.93;;;8.77;;
69894;SDS011;57172;52.034;5.090;2023-03-16T06:36:11;21.77;;;5.85;;
69894;SDS011;57172;52.034;5.090;2023-03-16T06:38:44;13.60;;;4.88;;
69894;SDS011;57172;52.034;5.090;2023-03-16T06:41:19;14.80;;;5.30;;
69894;SDS011;57172;52.034;5.090;2023-03-16T06:43:46;12.52;;;3.65;;
69894;SDS011;57172;52.034;5.090;2023-03-16T06:46:13;16.10;;;6.07;;
69894;SDS011;57172;52.034;5.090;2023-03-16T06:48:40;21.48;;;8.13;;
69894;SDS011;57172;52.034;5.090;2023-03-16T06:51:08;12.35;;;5.38;;
69894;SDS011;57172;52.034;5.090;2023-03-16T06:53:35;9.80;;;4.50;;
69894;SDS011;57172;52.034;5.090;2023-03-16T06:56:02;12.25;;;5.10;;
69894;SDS011;57172;52.034;5.090;2023-03-16T06:58:33;20.90;;;9.37;;
69894;SDS011;57172;52.034;5.090;2023-03-16T07:01:03;11.48;;;4.38;;
69894;SDS011;57172;52.034;5.090;2023-03-16T07:03:31;10.75;;;4.38;;
69894;SDS011;57172;52.034;5.090;2023-03-16T07:06:05;8.50;;;3.83;;
69894;SDS011;57172;52.034;5.090;2023-03-16T07:08:32;14.07;;;5.90;;
69894;SDS011;57172;52.034;5.090;2023-03-16T07:10:59;8.17;;;4.17;;
69894;SDS011;57172;52.034;5.090;2023-03-16T07:13:26;12.32;;;5.03;;
69894;SDS011;57172;52.034;5.090;2023-03-16T07:15:53;9.15;;;3.58;;
69894;SDS011;57172;52.034;5.090;2023-03-16T07:18:22;13.88;;;4.97;;
69894;SDS011;57172;52.034;5.090;2023-03-16T07:20:52;7.32;;;4.00;;
69894;SDS011;57172;52.034;5.090;2023-03-16T07:23:23;11.63;;;3.63;;
69894;SDS011;57172;52.034;5.090;2023-03-16T07:25:53;13.32;;;6.10;;
69894;SDS011;57172;52.034;5.090;2023-03-16T07:28:20;20.88;;;7.82;;
69894;SDS011;57172;52.034;5.090;2023-03-16T07:30:49;6.25;;;3.03;;
69894;SDS011;57172;52.034;5.090;2023-03-16T07:33:32;10.48;;;3.83;;
69894;SDS011;57172;52.034;5.090;2023-03-16T07:36:03;12.37;;;5.20;;
69894;SDS011;57172;52.034;5.090;2023-03-16T07:38:35;10.18;;;4.28;;
69894;SDS011;57172;52.034;5.090;2023-03-16T07:41:03;6.55;;;3.53;;
69894;SDS011;57172;52.034;5.090;2023-03-16T07:43:32;6.97;;;2.92;;
69894;SDS011;57172;52.034;5.090;2023-03-16T07:45:59;10.15;;;4.00;;
69894;SDS011;57172;52.034;5.090;2023-03-16T07:48:27;12.97;;;5.80;;
69894;SDS011;57172;52.034;5.090;2023-03-16T07:50:58;8.75;;;3.50;;
69894;SDS011;57172;52.034;5.090;2023-03-16T07:53:26;7.95;;;3.35;;
69894;SDS011;57172;52.034;5.090;2023-03-16T07:56:10;7.68;;;3.60;;
69894;SDS011;57172;52.034;5.090;2023-03-16T07:58:40;7.93;;;3.65;;
69894;SDS011;57172;52.034;5.090;2023-03-16T08:01:07;7.43;;;3.10;;
69894;SDS011;57172;52.034;5.090;2023-03-16T08:03:37;8.65;;;3.53;;
69894;SDS011;57172;52.034;5.090;2023-03-16T08:06:05;20.58;;;8.98;;
69894;SDS011;57172;52.034;5.090;2023-03-16T08:08:33;8.60;;;3.10;;
69894;SDS011;57172;52.034;5.090;2023-03-16T08:11:00;6.90;;;3.17;;
69894;SDS011;57172;52.034;5.090;2023-03-16T08:13:39;8.67;;;3.33;;
69894;SDS011;57172;52.034;5.090;2023-03-16T08:16:09;11.25;;;4.80;;
69894;SDS011;57172;52.034;5.090;2023-03-16T08:18:41;11.52;;;4.45;;
69894;SDS011;57172;52.034;5.090;2023-03-16T08:21:08;8.00;;;4.05;;
69894;SDS011;57172;52.034;5.090;2023-03-16T08:23:36;26.85;;;12.07;;
69894;SDS011;57172;52.034;5.090;2023-03-16T08:26:04;8.00;;;3.90;;
69894;SDS011;57172;52.034;5.090;2023-03-16T08:28:34;10.85;;;4.40;;
69894;SDS011;57172;52.034;5.090;2023-03-16T08:31:06;31.58;;;5.75;;
69894;SDS011;57172;52.034;5.090;2023-03-16T08:33:41;15.07;;;5.00;;
69894;SDS011;57172;52.034;5.090;2023-03-16T08:36:10;10.60;;;4.35;;
69894;SDS011;57172;52.034;5.090;2023-03-16T08:38:44;8.67;;;3.83;;
69894;SDS011;57172;52.034;5.090;2023-03-16T08:41:31;16.73;;;8.27;;
69894;SDS011;57172;52.034;5.090;2023-03-16T08:44:04;10.73;;;5.00;;
69894;SDS011;57172;52.034;5.090;2023-03-16T08:46:33;11.48;;;5.65;;
69894;SDS011;57172;52.034;5.090;2023-03-16T08:49:01;10.68;;;4.72;;
69894;SDS011;57172;52.034;5.090;2023-03-16T08:51:30;9.93;;;4.10;;
69894;SDS011;57172;52.034;5.090;2023-03-16T08:53:57;8.43;;;4.13;;
69894;SDS011;57172;52.034;5.090;2023-03-16T08:56:24;16.70;;;7.80;;
69894;SDS011;57172;52.034;5.090;2023-03-16T08:58:51;19.38;;;8.48;;
69894;SDS011;57172;52.034;5.090;2023-03-16T09:01:18;8.48;;;3.45;;
69894;SDS011;57172;52.034;5.090;2023-03-16T09:03:45;7.13;;;3.80;;
69894;SDS011;57172;52.034;5.090;2023-03-16T09:06:13;8.95;;;3.45;;
69894;SDS011;57172;52.034;5.090;2023-03-16T09:08:42;40.25;;;18.40;;
69894;SDS011;57172;52.034;5.090;2023-03-16T09:11:11;8.75;;;3.90;;
69894;SDS011;57172;52.034;5.090;2023-03-16T09:13:40;15.18;;;4.10;;
69894;SDS011;57172;52.034;5.090;2023-03-16T09:16:08;20.77;;;8.23;;
69894;SDS011;57172;52.034;5.090;2023-03-16T09:18:37;29.23;;;8.30;;
69894;SDS011;57172;52.034;5.090;2023-03-16T09:21:06;48.08;;;12.88;;
69894;SDS011;57172;52.034;5.090;2023-03-16T09:23:34;29.00;;;8.88;;
69894;SDS011;57172;52.034;5.090;2023-03-16T09:26:03;23.50;;;6.82;;
69894;SDS011;57172;52.034;5.090;2023-03-16T09:28:33;15.23;;;4.57;;
69894;SDS011;57172;52.034;5.090;2023-03-16T09:31:01;7.63;;;3.03;;
69894;SDS011;57172;52.034;5.090;2023-03-16T09:33:29;9.13;;;4.03;;
69894;SDS011;57172;52.034;5.090;2023-03-16T09:35:57;24.63;;;8.30;;
69894;SDS011;57172;52.034;5.090;2023-03-16T09:38:25;14.32;;;3.72;;
69894;SDS011;57172;52.034;5.090;2023-03-16T09:40:59;18.90;;;8.73;;
69894;SDS011;57172;52.034;5.090;2023-03-16T09:43:37;16.08;;;7.18;;
69894;SDS011;57172;52.034;5.090;2023-03-16T09:48:39;6.47;;;3.17;;
69894;SDS011;57172;52.034;5.090;2023-03-16T09:51:07;14.60;;;4.70;;
69894;SDS011;57172;52.034;5.090;2023-03-16T09:54:04;11.27;;;5.40;;
69894;SDS011;57172;52.034;5.090;2023-03-16T09:56:41;8.50;;;4.20;;
69894;SDS011;57172;52.034;5.090;2023-03-16T09:59:13;7.95;;;3.80;;
69894;SDS011;57172;52.034;5.090;2023-03-16T10:04:30;8.23;;;3.13;;
69894;SDS011;57172;52.034;5.090;2023-03-16T10:09:42;5.53;;;2.70;;
69894;SDS011;57172;52.034;5.090;2023-03-16T10:12:37;6.05;;;2.97;;
69894;SDS011;57172;52.034;5.090;2023-03-16T10:15:13;5.57;;;2.70;;
69894;SDS011;57172;52.034;5.090;2023-03-16T10:17:59;5.72;;;2.78;;
69894;SDS011;57172;52.034;5.090;2023-03-16T10:20:38;4.77;;;2.80;;
69894;SDS011;57172;52.034;5.090;2023-03-16T10:23:17;6.65;;;3.33;;
69894;SDS011;57172;52.034;5.090;2023-03-16T10:25:47;4.20;;;2.55;;
69894;SDS011;57172;52.034;5.090;2023-03-16T10:28:16;5.75;;;2.80;;
69894;SDS011;57172;52.034;5.090;2023-03-16T10:30:46;8.10;;;2.80;;
69894;SDS011;57172;52.034;5.090;2023-03-16T10:33:25;8.23;;;2.70;;
69894;SDS011;57172;52.034;5.090;2023-03-16T10:38:46;4.43;;;2.40;;
69894;SDS011;57172;52.034;5.090;2023-03-16T10:41:26;5.63;;;2.42;;
69894;SDS011;57172;52.034;5.090;2023-03-16T10:43:59;5.65;;;2.40;;
69894;SDS011;57172;52.034;5.090;2023-03-16T10:46:40;5.23;;;2.50;;
69894;SDS011;57172;52.034;5.090;2023-03-16T10:49:21;6.15;;;2.55;;
69894;SDS011;57172;52.034;5.090;2023-03-16T10:51:57;4.47;;;2.35;;
69894;SDS011;57172;52.034;5.090;2023-03-16T10:54:32;5.25;;;2.60;;
69894;SDS011;57172;52.034;5.090;2023-03-16T10:57:11;4.10;;;2.50;;
69894;SDS011;57172;52.034;5.090;2023-03-16T11:00:02;5.07;;;2.30;;
69894;SDS011;57172;52.034;5.090;2023-03-16T11:02:46;4.63;;;2.00;;
69894;SDS011;57172;52.034;5.090;2023-03-16T11:05:23;3.65;;;2.30;;
69894;SDS011;57172;52.034;5.090;2023-03-16T11:10:38;5.18;;;2.30;;
69894;SDS011;57172;52.034;5.090;2023-03-16T11:13:32;4.83;;;2.10;;
69894;SDS011;57172;52.034;5.090;2023-03-16T11:21:51;3.10;;;1.80;;
69894;SDS011;57172;52.034;5.090;2023-03-16T11:30:23;4.60;;;2.10;;
69894;SDS011;57172;52.034;5.090;2023-03-16T11:33:07;4.40;;;2.03;;
69894;SDS011;57172;52.034;5.090;2023-03-16T11:38:45;5.28;;;2.20;;
69894;SDS011;57172;52.034;5.090;2023-03-16T11:41:20;6.67;;;3.10;;
69894;SDS011;57172;52.034;5.090;2023-03-16T11:43:54;4.80;;;2.40;;
69894;SDS011;57172;52.034;5.090;2023-03-16T11:46:27;10.23;;;3.10;;
69894;SDS011;57172;52.034;5.090;2023-03-16T11:57:56;3.30;;;1.77;;
69894;SDS011;57172;52.034;5.090;2023-03-16T12:03:29;13.60;;;2.70;;
69894;SDS011;57172;52.034;5.090;2023-03-16T12:09:09;4.30;;;1.87;;
69894;SDS011;57172;52.034;5.090;2023-03-16T12:20:44;5.30;;;2.40;;
69894;SDS011;57172;52.034;5.090;2023-03-16T12:23:20;6.00;;;1.80;;
69894;SDS011;57172;52.034;5.090;2023-03-16T12:26:01;7.40;;;1.80;;
69894;SDS011;57172;52.034;5.090;2023-03-16T12:28:29;4.43;;;1.90;;
69894;SDS011;57172;52.034;5.090;2023-03-16T12:33:42;7.93;;;1.80;;
69894;SDS011;57172;52.034;5.090;2023-03-16T12:36:38;3.30;;;1.80;;
69894;SDS011;57172;52.034;5.090;2023-03-16T12:39:12;4.43;;;1.80;;
69894;SDS011;57172;52.034;5.090;2023-03-16T12:44:47;3.28;;;1.70;;
69894;SDS011;57172;52.034;5.090;2023-03-16T12:50:01;2.80;;;1.60;;
69894;SDS011;57172;52.034;5.090;2023-03-16T12:52:38;5.05;;;1.92;;
69894;SDS011;57172;52.034;5.090;2023-03-16T12:55:07;5.47;;;1.80;;
69894;SDS011;57172;52.034;5.090;2023-03-16T12:57:49;5.07;;;1.80;;
69894;SDS011;57172;52.034;5.090;2023-03-16T13:00:36;4.88;;;1.90;;
69894;SDS011;57172;52.034;5.090;2023-03-16T13:03:10;5.10;;;2.00;;
69894;SDS011;57172;52.034;5.090;2023-03-16T13:05:54;6.30;;;1.80;;
69894;SDS011;57172;52.034;5.090;2023-03-16T13:08:24;5.35;;;2.00;;
69894;SDS011;57172;52.034;5.090;2023-03-16T13:11:03;5.18;;;1.90;;
69894;SDS011;57172;52.034;5.090;2023-03-16T13:16:38;3.03;;;1.60;;
69894;SDS011;57172;52.034;5.090;2023-03-16T13:19:16;4.22;;;1.67;;
69894;SDS011;57172;52.034;5.090;2023-03-16T13:21:43;4.05;;;1.73;;
69894;SDS011;57172;52.034;5.090;2023-03-16T13:26:57;4.63;;;1.80;;
69894;SDS011;57172;52.034;5.090;2023-03-16T13:29:27;3.43;;;1.73;;
69894;SDS011;57172;52.034;5.090;2023-03-16T13:32:05;4.85;;;1.55;;
69894;SDS011;57172;52.034;5.090;2023-03-16T13:34:46;4.05;;;2.10;;
69894;SDS011;57172;52.034;5.090;2023-03-16T13:37:16;4.03;;;1.70;;
69894;SDS011;57172;52.034;5.090;2023-03-16T13:39:58;7.68;;;1.77;;
69894;SDS011;57172;52.034;5.090;2023-03-16T13:42:31;5.60;;;1.90;;
69894;SDS011;57172;52.034;5.090;2023-03-16T13:45:04;3.55;;;1.90;;
69894;SDS011;57172;52.034;5.090;2023-03-16T13:47:42;4.40;;;1.90;;
69894;SDS011;57172;52.034;5.090;2023-03-16T13:50:11;4.07;;;1.80;;
69894;SDS011;57172;52.034;5.090;2023-03-16T13:52:39;7.03;;;1.98;;
69894;SDS011;57172;52.034;5.090;2023-03-16T13:55:17;6.30;;;1.90;;
69894;SDS011;57172;52.034;5.090;2023-03-16T13:57:51;5.88;;;1.70;;
69894;SDS011;57172;52.034;5.090;2023-03-16T14:00:19;3.22;;;1.63;;
69894;SDS011;57172;52.034;5.090;2023-03-16T14:02:52;5.25;;;2.00;;
69894;SDS011;57172;52.034;5.090;2023-03-16T14:05:28;4.10;;;2.00;;
69894;SDS011;57172;52.034;5.090;2023-03-16T14:07:58;5.53;;;1.93;;
69894;SDS011;57172;52.034;5.090;2023-03-16T14:10:31;5.55;;;1.90;;
69894;SDS011;57172;52.034;5.090;2023-03-16T14:13:07;4.68;;;2.08;;
69894;SDS011;57172;52.034;5.090;2023-03-16T14:15:36;5.13;;;1.85;;
69894;SDS011;57172;52.034;5.090;2023-03-16T14:18:11;2.25;;;1.63;;
69894;SDS011;57172;52.034;5.090;2023-03-16T14:20:49;4.17;;;1.80;;
69894;SDS011;57172;52.034;5.090;2023-03-16T14:23:20;5.97;;;1.65;;
69894;SDS011;57172;52.034;5.090;2023-03-16T14:26:02;3.63;;;1.88;;
69894;SDS011;57172;52.034;5.090;2023-03-16T14:28:31;3.42;;;1.65;;
69894;SDS011;57172;52.034;5.090;2023-03-16T14:31:04;3.83;;;1.90;;
69894;SDS011;57172;52.034;5.090;2023-03-16T14:33:35;4.87;;;1.87;;
69894;SDS011;57172;52.034;5.090;2023-03-16T14:36:06;3.25;;;1.70;;
69894;SDS011;57172;52.034;5.090;2023-03-16T14:38:38;3.50;;;1.70;;
69894;SDS011;57172;52.034;5.090;2023-03-16T14:43:35;4.55;;;1.88;;
69894;SDS011;57172;52.034;5.090;2023-03-16T14:46:06;4.67;;;1.90;;
69894;SDS011;57172;52.034;5.090;2023-03-16T14:48:39;4.70;;;1.88;;
69894;SDS011;57172;52.034;5.090;2023-03-16T14:51:08;5.32;;;1.90;;
69894;SDS011;57172;52.034;5.090;2023-03-16T14:53:39;8.68;;;2.00;;
69894;SDS011;57172;52.034;5.090;2023-03-16T14:56:12;4.75;;;1.70;;
69894;SDS011;57172;52.034;5.090;2023-03-16T14:58:40;5.73;;;1.73;;
69894;SDS011;57172;52.034;5.090;2023-03-16T15:01:10;4.63;;;2.38;;
69894;SDS011;57172;52.034;5.090;2023-03-16T15:03:41;3.83;;;1.80;;
69894;SDS011;57172;52.034;5.090;2023-03-16T15:06:08;4.55;;;1.70;;
69894;SDS011;57172;52.034;5.090;2023-03-16T15:08:36;4.60;;;1.80;;
69894;SDS011;57172;52.034;5.090;2023-03-16T15:11:09;5.43;;;2.00;;
69894;SDS011;57172;52.034;5.090;2023-03-16T15:13:37;4.40;;;1.60;;
69894;SDS011;57172;52.034;5.090;2023-03-16T15:16:11;3.13;;;1.73;;
69894;SDS011;57172;52.034;5.090;2023-03-16T15:18:39;4.22;;;1.92;;
69894;SDS011;57172;52.034;5.090;2023-03-16T15:21:10;4.88;;;2.40;;
69894;SDS011;57172;52.034;5.090;2023-03-16T15:23:40;3.40;;;1.80;;
69894;SDS011;57172;52.034;5.090;2023-03-16T15:26:10;6.10;;;2.30;;
69894;SDS011;57172;52.034;5.090;2023-03-16T15:28:39;5.43;;;2.08;;
69894;SDS011;57172;52.034;5.090;2023-03-16T15:31:06;4.55;;;1.73;;
69894;SDS011;57172;52.034;5.090;2023-03-16T15:33:37;3.97;;;1.80;;
69894;SDS011;57172;52.034;5.090;2023-03-16T15:36:19;3.63;;;1.90;;
69894;SDS011;57172;52.034;5.090;2023-03-16T15:38:48;3.53;;;1.90;;
69894;SDS011;57172;52.034;5.090;2023-03-16T15:41:16;5.05;;;1.40;;
69894;SDS011;57172;52.034;5.090;2023-03-16T15:43:44;3.72;;;1.50;;
69894;SDS011;57172;52.034;5.090;2023-03-16T15:46:11;4.18;;;1.50;;
69894;SDS011;57172;52.034;5.090;2023-03-16T15:48:39;4.67;;;1.50;;
69894;SDS011;57172;52.034;5.090;2023-03-16T15:51:07;4.57;;;1.80;;
69894;SDS011;57172;52.034;5.090;2023-03-16T15:53:42;3.40;;;1.60;;
69894;SDS011;57172;52.034;5.090;2023-03-16T15:56:16;3.35;;;1.60;;
69894;SDS011;57172;52.034;5.090;2023-03-16T15:58:48;4.13;;;1.70;;
69894;SDS011;57172;52.034;5.090;2023-03-16T16:03:50;3.42;;;1.92;;
69894;SDS011;57172;52.034;5.090;2023-03-16T16:06:17;3.72;;;1.60;;
69894;SDS011;57172;52.034;5.090;2023-03-16T16:08:45;2.53;;;1.60;;
69894;SDS011;57172;52.034;5.090;2023-03-16T16:11:13;4.35;;;1.58;;
69894;SDS011;57172;52.034;5.090;2023-03-16T16:13:42;3.03;;;1.50;;
69894;SDS011;57172;52.034;5.090;2023-03-16T16:16:11;4.85;;;1.50;;
69894;SDS011;57172;52.034;5.090;2023-03-16T16:18:40;5.65;;;1.80;;
69894;SDS011;57172;52.034;5.090;2023-03-16T16:21:12;3.10;;;1.60;;
69894;SDS011;57172;52.034;5.090;2023-03-16T16:23:41;2.95;;;1.38;;
69894;SDS011;57172;52.034;5.090;2023-03-16T16:26:31;3.00;;;1.30;;
69894;SDS011;57172;52.034;5.090;2023-03-16T16:29:18;3.30;;;1.50;;
69894;SDS011;57172;52.034;5.090;2023-03-16T16:31:50;2.70;;;1.50;;